createdAt,value
2023-08-05T00:01:35.755Z,4.50
2023-08-05T00:06:38.884Z,4.70
2023-08-05T00:11:42.155Z,5.10
2023-08-05T00:16:45.188Z,5.00
2023-08-05T00:21:48.060Z,5.20
2023-08-05T00:26:51.363Z,4.40
2023-08-05T00:31:54.772Z,4.40
2023-08-05T00:36:57.829Z,4.90
2023-08-05T00:42:00.794Z,5.00
2023-08-05T00:47:03.842Z,5.10
2023-08-05T00:52:08.925Z,4.90
2023-08-05T00:57:14.225Z,4.40
2023-08-05T01:02:17.144Z,4.40
2023-08-05T01:07:21.703Z,5.80
2023-08-05T01:12:24.781Z,6.20
2023-08-05T01:17:28.437Z,5.70
2023-08-05T01:22:39.408Z,5.80
2023-08-05T01:27:43.416Z,5.60
2023-08-05T01:32:46.763Z,5.20
2023-08-05T01:37:50.577Z,5.60
2023-08-05T01:42:53.574Z,5.70
2023-08-05T01:47:56.618Z,5.20
2023-08-05T01:52:59.786Z,5.40
2023-08-05T01:58:02.803Z,5.50
2023-08-05T02:03:06.290Z,5.50
2023-08-05T02:08:09.971Z,5.30
2023-08-05T02:13:13.062Z,5.70
2023-08-05T02:18:16.425Z,6.00
2023-08-05T02:23:19.480Z,5.60
2023-08-05T02:28:22.736Z,5.50
2023-08-05T02:33:25.736Z,5.80
2023-08-05T02:38:28.787Z,5.60
2023-08-05T02:43:31.738Z,5.80
2023-08-05T02:48:35.054Z,5.80
2023-08-05T02:53:38.124Z,6.30
2023-08-05T02:58:41.264Z,6.10
2023-08-05T03:03:44.306Z,6.40
2023-08-05T03:08:47.460Z,8.10
2023-08-05T03:13:50.423Z,7.50
2023-08-05T03:18:53.422Z,8.60
2023-08-05T03:23:56.472Z,8.70
2023-08-05T03:28:59.487Z,8.40
2023-08-05T03:34:02.479Z,8.50
2023-08-05T03:39:05.632Z,7.80
2023-08-05T03:44:09.006Z,8.20
2023-08-05T03:49:12.014Z,8.20
2023-08-05T03:54:15.639Z,7.90
2023-08-05T03:59:19.463Z,6.90
2023-08-05T04:04:22.673Z,7.60
2023-08-05T04:09:26.555Z,7.00
2023-08-05T04:14:29.682Z,6.80
2023-08-05T04:19:34.332Z,6.20
2023-08-05T04:24:38.040Z,6.70
2023-08-05T04:29:41.143Z,6.70
2023-08-05T04:34:45.964Z,5.40
2023-08-05T04:39:50.026Z,5.20
2023-08-05T04:44:53.413Z,5.50
2023-08-05T04:49:56.397Z,5.50
2023-08-05T04:55:10.381Z,5.30
2023-08-05T05:00:14.292Z,4.60
2023-08-05T05:05:17.869Z,4.70
2023-08-05T05:10:20.870Z,4.90
2023-08-05T05:15:24.032Z,4.60
2023-08-05T05:20:27.036Z,4.70
2023-08-05T05:25:29.985Z,4.90
2023-08-05T05:30:33.214Z,5.00
2023-08-05T05:35:36.357Z,5.70
2023-08-05T05:40:42.579Z,4.90
2023-08-05T05:45:48.005Z,5.20
2023-08-05T05:50:54.189Z,4.30
2023-08-05T05:55:57.193Z,4.10
2023-08-05T06:01:01.758Z,3.90
2023-08-05T06:06:04.904Z,3.80
2023-08-05T06:11:08.750Z,3.90
2023-08-05T06:16:11.765Z,4.50
2023-08-05T06:21:14.893Z,3.20
2023-08-05T06:26:17.995Z,3.20
2023-08-05T06:31:21.424Z,2.70
2023-08-05T06:36:24.453Z,2.60
2023-08-05T06:41:27.528Z,2.80
2023-08-05T06:46:33.005Z,2.80
2023-08-05T06:51:36.108Z,2.70
2023-08-05T06:56:39.210Z,2.60
2023-08-05T07:01:42.200Z,2.70
2023-08-05T07:06:45.796Z,2.40
2023-08-05T07:11:49.144Z,2.10
2023-08-05T07:16:52.787Z,2.30
2023-08-05T07:21:55.932Z,2.20
2023-08-05T07:26:59.037Z,2.30
2023-08-05T07:32:03.587Z,2.40
2023-08-05T07:37:07.056Z,2.20
2023-08-05T07:42:10.678Z,2.40
2023-08-05T07:47:13.991Z,2.50
2023-08-05T07:52:18.917Z,2.40
2023-08-05T07:57:22.361Z,2.30
2023-08-05T08:02:26.478Z,2.20
2023-08-05T08:07:29.705Z,2.20
2023-08-05T08:12:32.682Z,2.30
2023-08-05T08:17:36.730Z,1.90
2023-08-05T08:22:41.669Z,2.00
2023-08-05T08:27:44.663Z,2.00
2023-08-05T08:32:47.888Z,2.10
2023-08-05T08:37:51.962Z,2.10
2023-08-05T08:42:55.649Z,2.20
2023-08-05T08:48:00.075Z,2.10
2023-08-05T08:53:03.159Z,2.10
2023-08-05T08:58:06.723Z,2.20
2023-08-05T09:03:11.343Z,2.20
2023-08-05T09:08:14.808Z,2.20
2023-08-05T09:13:18.909Z,2.20
2023-08-05T09:18:22.056Z,2.00
2023-08-05T09:23:25.070Z,2.20
2023-08-05T09:28:32.868Z,2.40
2023-08-05T09:33:36.395Z,2.00
2023-08-05T09:38:46.793Z,2.10
2023-08-05T09:43:51.014Z,2.30
2023-08-05T09:48:56.070Z,1.90
2023-08-05T09:54:03.377Z,2.30
2023-08-05T09:59:10.812Z,2.10
2023-08-05T10:04:17.791Z,2.30
2023-08-05T10:09:21.807Z,2.20
2023-08-05T10:14:29.526Z,2.20
2023-08-05T10:19:32.810Z,2.10
2023-08-05T10:24:53.049Z,2.00
2023-08-05T10:29:59.031Z,2.30
2023-08-05T10:35:43.622Z,2.20
2023-08-05T10:40:53.943Z,2.40
2023-08-05T10:45:57.360Z,2.60
2023-08-05T10:51:07.889Z,2.60
2023-08-05T10:56:14.668Z,2.40
2023-08-05T11:01:18.951Z,2.40
2023-08-05T11:06:24.993Z,2.40
2023-08-05T11:11:28.774Z,2.30
2023-08-05T11:16:31.854Z,3.10
2023-08-05T11:21:36.796Z,2.70
2023-08-05T11:26:39.900Z,2.50
2023-08-05T11:31:53.073Z,2.40
2023-08-05T11:36:57.487Z,2.40
2023-08-05T11:42:02.650Z,2.20
2023-08-05T11:47:08.039Z,2.20
2023-08-05T11:52:13.156Z,2.50
2023-08-05T11:57:20.682Z,2.60
2023-08-05T12:02:26.173Z,2.70
2023-08-05T12:07:30.778Z,2.60
2023-08-05T12:12:34.404Z,3.20
2023-08-05T12:17:37.525Z,3.20
2023-08-05T12:22:40.620Z,3.10
2023-08-05T12:27:44.140Z,3.00
2023-08-05T12:32:47.973Z,3.00
2023-08-05T12:37:51.174Z,2.80
2023-08-05T12:42:55.823Z,2.90
2023-08-05T12:47:58.872Z,2.90
2023-08-05T12:53:01.948Z,3.10
2023-08-05T12:58:04.801Z,3.10
2023-08-05T13:03:08.114Z,3.30
2023-08-05T13:08:13.122Z,3.20
2023-08-05T13:13:16.116Z,3.30
2023-08-05T13:18:19.118Z,2.90
2023-08-05T13:23:22.123Z,3.10
2023-08-05T13:28:25.239Z,2.90
2023-08-05T13:33:28.822Z,3.30
2023-08-05T13:38:31.766Z,3.20
2023-08-05T13:43:34.874Z,3.10
2023-08-05T13:48:39.307Z,3.40
2023-08-05T13:53:42.318Z,3.40
2023-08-05T13:58:45.322Z,3.40
2023-08-05T14:03:48.695Z,3.00
2023-08-05T14:08:51.952Z,3.00
2023-08-05T14:13:55.069Z,3.30
2023-08-05T14:18:58.173Z,3.00
2023-08-05T14:24:01.179Z,3.40
2023-08-05T14:29:04.084Z,3.70
2023-08-05T14:34:06.999Z,4.10
2023-08-05T14:39:09.997Z,4.10
2023-08-05T14:44:13.526Z,3.20
2023-08-05T14:49:16.472Z,2.80
2023-08-05T14:54:19.433Z,2.90
2023-08-05T14:59:22.536Z,3.00
2023-08-05T15:04:25.544Z,3.10
2023-08-05T15:09:28.445Z,3.40
2023-08-05T15:14:31.456Z,3.30
2023-08-05T15:19:34.471Z,3.00
2023-08-05T15:24:38.388Z,3.20
2023-08-05T15:29:41.619Z,3.60
2023-08-05T15:34:44.622Z,3.30
2023-08-05T15:39:47.731Z,3.50
2023-08-05T15:44:50.626Z,3.60
2023-08-05T15:49:53.627Z,3.50
2023-08-05T15:54:56.535Z,3.10
2023-08-05T15:59:59.437Z,2.90
2023-08-05T16:05:02.477Z,3.00
2023-08-05T16:10:07.249Z,3.50
2023-08-05T16:15:11.121Z,3.50
2023-08-05T16:20:14.573Z,3.30
2023-08-05T16:25:17.646Z,3.10
2023-08-05T16:30:20.567Z,3.10
2023-08-05T16:35:23.664Z,3.30
2023-08-05T16:40:26.673Z,3.30
2023-08-05T16:45:30.188Z,3.30
2023-08-05T16:50:33.199Z,3.20
2023-08-05T16:55:36.610Z,3.60
2023-08-05T17:00:39.763Z,3.30
2023-08-05T17:05:42.934Z,3.20
2023-08-05T17:10:46.042Z,3.10
2023-08-05T17:15:49.668Z,3.00
2023-08-05T17:20:58.008Z,3.20
2023-08-05T17:26:01.106Z,3.20
2023-08-05T17:31:04.827Z,3.10
2023-08-05T17:36:07.832Z,2.90
2023-08-05T17:41:11.356Z,3.10
2023-08-05T17:46:14.399Z,3.20
2023-08-05T17:51:17.671Z,3.50
2023-08-05T17:56:20.678Z,3.40
2023-08-05T18:01:24.026Z,3.40
2023-08-05T18:06:27.102Z,3.40
2023-08-05T18:11:30.315Z,3.10
2023-08-05T18:16:33.399Z,3.10
2023-08-05T18:21:37.731Z,2.90
2023-08-05T18:26:41.082Z,3.10
2023-08-05T18:31:45.368Z,3.30
2023-08-05T18:36:48.422Z,3.20
2023-08-05T18:41:52.831Z,3.30
2023-08-05T18:46:56.370Z,3.00
2023-08-05T18:51:59.298Z,2.60
2023-08-05T18:57:02.193Z,3.20
2023-08-05T19:02:06.039Z,2.90
2023-08-05T19:07:09.042Z,3.00
2023-08-05T19:12:12.853Z,3.50
2023-08-05T19:17:15.957Z,2.90
2023-08-05T19:22:18.960Z,3.00
2023-08-05T19:27:28.149Z,2.80
2023-08-05T19:32:35.898Z,2.90
2023-08-05T19:37:39.043Z,2.90
2023-08-05T19:42:41.986Z,3.00
2023-08-05T19:47:45.604Z,2.80
2023-08-05T19:52:54.007Z,2.80
2023-08-05T19:57:57.419Z,3.20
2023-08-05T20:03:05.203Z,2.80
2023-08-05T20:08:09.092Z,2.60
2023-08-05T20:13:14.212Z,2.90
2023-08-05T20:18:17.231Z,2.80
2023-08-05T20:23:28.223Z,2.70
2023-08-05T20:28:31.846Z,2.80
2023-08-05T20:33:37.413Z,2.60
2023-08-05T20:38:41.243Z,2.30
2023-08-05T20:43:44.861Z,2.40
2023-08-05T20:48:51.046Z,2.30
2023-08-05T20:53:54.460Z,2.30
2023-08-05T20:58:57.467Z,2.30
2023-08-05T21:04:00.531Z,2.40
2023-08-05T21:09:03.788Z,2.30
2023-08-05T21:14:07.316Z,2.40
2023-08-05T21:19:10.309Z,2.40
2023-08-05T21:24:13.214Z,2.40
2023-08-05T21:29:20.332Z,2.70
2023-08-05T21:34:23.459Z,2.50
2023-08-05T21:39:26.433Z,2.50
2023-08-05T21:44:29.446Z,2.40
2023-08-05T21:49:32.354Z,2.40
2023-08-05T21:54:35.353Z,2.70
2023-08-05T21:59:38.669Z,2.40
2023-08-05T22:04:43.767Z,2.50
2023-08-05T22:09:46.830Z,2.60
2023-08-05T22:14:49.753Z,2.40
2023-08-05T22:19:52.947Z,2.60
2023-08-05T22:24:56.021Z,2.70
2023-08-05T22:29:59.689Z,2.60
2023-08-05T22:35:03.332Z,2.80
2023-08-05T22:40:07.367Z,3.00
2023-08-05T22:45:11.065Z,2.90
2023-08-05T22:50:14.061Z,2.80
2023-08-05T22:55:17.170Z,2.90
2023-08-05T23:00:20.291Z,3.00
2023-08-05T23:05:24.010Z,2.60
2023-08-05T23:10:32.881Z,3.40
2023-08-05T23:15:35.986Z,3.00
2023-08-05T23:20:39.092Z,3.30
2023-08-05T23:25:42.480Z,3.50
2023-08-05T23:30:46.547Z,3.50
2023-08-05T23:35:55.063Z,3.80
2023-08-05T23:40:57.984Z,3.70
2023-08-05T23:46:00.892Z,3.90
2023-08-05T23:51:03.974Z,3.70
2023-08-05T23:56:06.983Z,4.30
